Time;durP1;ratioP1;P1;durP2;ratioP2;P2;SDS_P1;SDS_P2;PMS_P1;PMS_P2;Temp;Humidity;BMP_temperature;BMP_pressure;BME280_temperature;BME280_humidity;BME280_pressure;Samples;Min_cycle;Max_cycle;Signal;HPM_P1;HPM_P2
2023/07/22 00:01:55;;;;;;;20.05;18.45;;;;;;;20.78;62.43;99728.75;4763614;29;98447;-74
2023/07/22 00:04:20;;;;;;;19.20;17.83;;;;;;;20.72;62.74;99735.47;4764234;29;97062;-74
2023/07/22 00:06:46;;;;;;;18.80;17.60;;;;;;;20.69;62.45;99735.72;4763183;29;96806;-74
2023/07/22 00:09:11;;;;;;;19.85;18.25;;;;;;;20.66;62.32;99744.00;4763539;29;98703;-74
2023/07/22 00:11:37;;;;;;;19.23;17.92;;;;;;;20.62;62.29;99733.69;4760364;29;98833;-72
2023/07/22 00:14:02;;;;;;;19.48;18.08;;;;;;;20.58;62.53;99725.97;4763919;29;97222;-74
2023/07/22 00:16:29;;;;;;;19.70;18.30;;;;;;;20.52;62.59;99721.16;4763743;29;96856;-74
2023/07/22 00:18:54;;;;;;;19.48;18.08;;;;;;;20.53;62.61;99722.00;4762887;29;98880;-72
2023/07/22 00:21:20;;;;;;;18.85;17.65;;;;;;;20.46;62.71;99718.16;4763450;29;98380;-73
2023/07/22 00:23:46;;;;;;;18.83;17.42;;;;;;;20.43;62.59;99724.56;4763546;29;96739;-72
2023/07/22 00:26:11;;;;;;;20.50;18.90;;;;;;;20.42;62.73;99738.91;4763297;29;96853;-73
2023/07/22 00:28:37;;;;;;;19.77;18.23;;;;;;;20.36;62.89;99736.72;4761082;29;98716;-72
2023/07/22 00:31:03;;;;;;;19.63;17.63;;;;;;;20.35;62.95;99735.88;4763409;29;97376;-74
2023/07/22 00:33:28;;;;;;;19.45;18.05;;;;;;;20.34;62.93;99739.53;4764032;29;96766;-72
2023/07/22 00:35:55;;;;;;;18.48;17.25;;;;;;;20.35;62.70;99748.38;4763677;29;96797;-74
2023/07/22 00:38:20;;;;;;;19.63;18.13;;;;;;;20.32;62.81;99754.78;4763000;29;98908;-74
2023/07/22 00:40:46;;;;;;;20.88;19.23;;;;;;;20.21;62.96;99752.16;4753521;29;99758;-74
2023/07/22 00:43:12;;;;;;;19.85;18.23;;;;;;;20.15;62.97;99750.03;4764057;29;97362;-74
2023/07/22 00:45:37;;;;;;;19.42;17.67;;;;;;;20.13;62.80;99754.66;4753126;29;96803;-74
2023/07/22 00:48:05;;;;;;;18.02;16.88;;;;;;;20.16;62.59;99762.38;4746557;29;98930;-74
2023/07/22 00:50:31;;;;;;;19.15;17.85;;;;;;;20.17;62.56;99753.41;4746639;29;100062;-73
2023/07/22 00:52:56;;;;;;;19.25;17.50;;;;;;;20.15;62.48;99746.50;4753030;29;96829;-73
2023/07/22 00:55:22;;;;;;;19.90;18.35;;;;;;;20.11;62.46;99741.44;4763318;29;96954;-74
2023/07/22 00:57:48;;;;;;;18.67;17.52;;;;;;;20.06;62.67;99751.63;4746482;29;97835;-74
2023/07/22 01:00:15;;;;;;;18.55;17.35;;;;;;;20.08;62.89;99749.69;4763323;29;98665;-74
2023/07/22 01:02:42;;;;;;;19.15;17.95;;;;;;;20.05;62.96;99749.09;4746923;29;97370;-74
2023/07/22 01:05:10;;;;;;;19.75;18.05;;;;;;;20.04;62.73;99752.72;4772235;29;96946;-73
2023/07/22 01:07:36;;;;;;;18.65;17.45;;;;;;;20.05;62.80;99749.09;4759378;29;98966;-74
2023/07/22 01:10:03;;;;;;;19.30;18.00;;;;;;;20.02;62.48;99758.19;4762990;29;98519;-73
2023/07/22 01:12:28;;;;;;;19.90;18.45;;;;;;;19.94;62.68;99752.63;4762729;29;96738;-73
2023/07/22 01:14:54;;;;;;;18.48;17.38;;;;;;;19.99;62.65;99753.13;4774549;29;96775;-74
2023/07/22 01:17:20;;;;;;;19.58;18.27;;;;;;;20.00;62.71;99761.94;4762353;29;98643;-74
2023/07/22 01:19:46;;;;;;;19.08;17.65;;;;;;;19.98;62.70;99751.41;4746302;29;98289;-74
2023/07/22 01:22:12;;;;;;;18.48;17.25;;;;;;;19.97;62.68;99752.38;4752987;29;96729;-73
2023/07/22 01:24:38;;;;;;;18.73;17.38;;;;;;;19.97;62.28;99752.38;4752958;29;96779;-73
2023/07/22 01:27:08;;;;;;;19.85;18.63;;;;;;;19.94;62.48;99749.13;4748788;29;100282;-73
2023/07/22 01:29:34;;;;;;;20.02;18.05;;;;;;;19.88;62.77;99742.50;4750020;29;98446;-73
2023/07/22 01:31:59;;;;;;;19.73;18.23;;;;;;;19.84;62.89;99747.22;4766241;29;96634;-73
2023/07/22 01:34:25;;;;;;;18.60;17.40;;;;;;;19.79;62.93;99754.75;4767025;29;97430;-74
2023/07/22 01:36:50;;;;;;;19.52;17.90;;;;;;;19.78;62.64;99757.50;4763463;29;100622;-73
2023/07/22 01:39:18;;;;;;;18.77;17.60;;;;;;;19.74;62.68;99769.41;4756996;29;100616;-73
2023/07/22 01:41:44;;;;;;;18.98;17.75;;;;;;;19.71;62.78;99777.63;4771692;29;96868;-74
2023/07/22 01:44:10;;;;;;;18.30;17.20;;;;;;;19.69;62.76;99788.41;4766159;29;96828;-74
2023/07/22 01:46:36;;;;;;;18.33;17.15;;;;;;;19.67;62.68;99782.38;4748917;29;100719;-74
2023/07/22 01:49:08;;;;;;;19.05;17.27;;;;;;;19.67;62.71;99777.88;4765668;29;98654;-73
2023/07/22 01:51:34;;;;;;;19.00;17.80;;;;;;;19.63;62.80;99779.09;4772546;29;96816;-73
2023/07/22 01:53:59;;;;;;;20.08;18.77;;;;;;;19.65;62.59;99786.97;4769912;29;99075;-73
2023/07/22 01:56:25;;;;;;;19.25;17.90;;;;;;;19.63;62.61;99791.53;4764942;29;99173;-73
2023/07/22 01:58:50;;;;;;;18.95;17.65;;;;;;;19.59;62.72;99790.09;4763695;29;100255;-74
2023/07/22 02:01:16;;;;;;;19.70;18.30;;;;;;;19.57;62.56;99792.00;4754764;29;96890;-73
2023/07/22 02:03:45;;;;;;;20.27;18.88;;;;;;;19.56;62.40;99788.50;4763859;29;96954;-74
2023/07/22 02:06:12;;;;;;;19.50;18.20;;;;;;;19.58;62.61;99791.91;4763717;29;98782;-73
2023/07/22 02:08:38;;;;;;;20.80;19.33;;;;;;;19.51;62.77;99792.50;4765229;29;98380;-73
2023/07/22 02:11:06;;;;;;;18.42;17.02;;;;;;;19.47;62.71;99799.91;4770861;29;96717;-73
2023/07/22 02:13:31;;;;;;;18.90;17.50;;;;;;;19.42;62.91;99800.25;4759349;29;96793;-73
2023/07/22 02:15:57;;;;;;;19.70;18.50;;;;;;;19.43;63.00;99793.09;4765048;29;98532;-74
2023/07/22 02:18:23;;;;;;;19.38;18.02;;;;;;;19.43;62.85;99788.66;4764925;29;98515;-74
2023/07/22 02:20:48;;;;;;;20.00;18.55;;;;;;;19.38;62.86;99793.47;4764987;29;96911;-73
2023/07/22 02:23:14;;;;;;;20.10;18.70;;;;;;;19.35;63.20;99792.88;4763431;29;98861;-74
2023/07/22 02:25:40;;;;;;;19.45;18.15;;;;;;;19.31;63.23;99797.56;4764363;29;97531;-73
2023/07/22 02:28:06;;;;;;;19.42;18.00;;;;;;;19.28;63.29;99800.47;4762716;29;97801;-73
2023/07/22 02:30:35;;;;;;;20.67;19.25;;;;;;;19.34;63.38;99801.81;4766175;29;96718;-73
2023/07/22 02:33:02;;;;;;;21.20;19.38;;;;;;;19.34;63.51;99799.16;4765545;29;96956;-73
2023/07/22 02:35:28;;;;;;;20.63;19.17;;;;;;;19.34;63.52;99800.00;4747675;29;100413;-73
2023/07/22 02:37:54;;;;;;;20.08;18.60;;;;;;;19.28;63.58;99800.47;4767485;29;98550;-74
2023/07/22 02:40:20;;;;;;;20.02;18.73;;;;;;;19.26;63.80;99797.13;4765138;29;97183;-74
2023/07/22 02:42:45;;;;;;;20.83;19.23;;;;;;;19.23;64.46;99794.69;4768845;29;97433;-74
2023/07/22 02:45:12;;;;;;;20.35;18.80;;;;;;;19.29;63.95;99806.69;4754046;29;100371;-74
2023/07/22 02:47:38;;;;;;;21.02;19.35;;;;;;;19.29;64.13;99796.03;4759837;29;97763;-74
2023/07/22 02:50:06;;;;;;;20.70;19.02;;;;;;;19.31;63.96;99808.22;4768563;29;97231;-73
2023/07/22 02:52:32;;;;;;;20.33;18.25;;;;;;;19.29;63.80;99799.53;4748603;29;96860;-73
2023/07/22 02:55:10;;;;;;;20.10;18.45;;;;;;;19.35;63.43;99798.22;4764683;29;99126;-73
2023/07/22 02:57:37;;;;;;;21.35;19.80;;;;;;;19.37;63.73;99810.44;4763570;29;98303;-71
2023/07/22 03:00:07;;;;;;;21.30;19.55;;;;;;;19.37;63.35;99813.09;4765107;29;96745;-73
2023/07/22 03:02:36;;;;;;;22.08;20.17;;;;;;;19.33;63.53;99821.41;4752607;29;96821;-74
2023/07/22 03:05:09;;;;;;;22.75;20.63;;;;;;;19.35;63.46;99812.34;4764891;29;98730;-73
2023/07/22 03:07:39;;;;;;;20.30;18.90;;;;;;;19.36;63.28;99819.34;4764134;29;98503;-73
2023/07/22 03:10:06;;;;;;;20.95;19.45;;;;;;;19.34;63.33;99815.13;4764496;29;97208;-73
2023/07/22 03:12:32;;;;;;;21.65;19.98;;;;;;;19.34;63.57;99820.44;4764493;29;96918;-73
2023/07/22 03:14:57;;;;;;;22.25;20.38;;;;;;;19.36;63.60;99824.69;4764108;29;98998;-74
2023/07/22 03:17:23;;;;;;;21.45;19.90;;;;;;;19.37;63.25;99821.06;4763499;29;98598;-73
2023/07/22 03:19:49;;;;;;;22.77;20.98;;;;;;;19.40;63.20;99826.16;4764313;29;96942;-74
2023/07/22 03:22:21;;;;;;;21.83;20.05;;;;;;;19.39;63.17;99821.78;4764548;29;96835;-73
2023/07/22 03:24:47;;;;;;;24.02;21.95;;;;;;;19.41;62.82;99827.84;4763781;29;100903;-73
2023/07/22 03:27:14;;;;;;;23.50;21.70;;;;;;;19.41;62.83;99834.97;4763794;29;97949;-74
2023/07/22 03:29:40;;;;;;;23.13;21.33;;;;;;;19.43;62.92;99839.22;4764488;29;96818;-74
2023/07/22 03:32:06;;;;;;;22.35;20.60;;;;;;;19.43;62.73;99835.69;4765523;29;97617;-74
2023/07/22 03:34:32;;;;;;;21.75;20.08;;;;;;;19.32;62.79;99836.53;4766162;29;97810;-73
2023/07/22 03:36:58;;;;;;;20.42;19.00;;;;;;;19.39;62.56;99850.22;4773138;29;98307;-73
2023/07/22 03:39:24;;;;;;;20.25;18.65;;;;;;;19.37;62.58;99839.69;4763767;29;96815;-73
2023/07/22 03:41:50;;;;;;;20.33;19.10;;;;;;;19.45;62.71;99844.41;4763951;29;96880;-74
2023/07/22 03:44:15;;;;;;;19.40;17.75;;;;;;;19.44;62.63;99846.22;4747906;29;100248;-74
2023/07/22 03:46:41;;;;;;;19.08;17.77;;;;;;;19.47;62.36;99846.97;4762582;29;98925;-74
2023/07/22 03:49:06;;;;;;;19.15;17.83;;;;;;;19.48;62.52;99846.81;4752606;29;96888;-73
2023/07/22 03:51:33;;;;;;;19.15;17.80;;;;;;;19.48;62.35;99844.16;4763848;29;96984;-74
2023/07/22 03:53:58;;;;;;;19.20;17.75;;;;;;;19.47;62.37;99841.63;4753368;29;98635;-73
2023/07/22 03:56:24;;;;;;;19.40;18.05;;;;;;;19.48;62.27;99853.97;4745289;29;100558;-73
2023/07/22 03:58:51;;;;;;;19.73;18.08;;;;;;;19.46;62.22;99851.44;4755686;29;97071;-73
2023/07/22 04:01:16;;;;;;;19.23;17.48;;;;;;;19.48;62.12;99856.63;4764559;29;97427;-73
2023/07/22 04:03:41;;;;;;;18.25;17.00;;;;;;;19.48;61.91;99859.28;4763281;29;98634;-73
2023/07/22 04:06:07;;;;;;;18.50;17.10;;;;;;;19.42;62.00;99852.63;4748894;29;100278;-74
2023/07/22 04:08:33;;;;;;;18.95;17.33;;;;;;;19.49;61.91;99859.19;4766009;29;96687;-74
2023/07/22 04:10:58;;;;;;;20.45;18.73;;;;;;;19.63;61.59;99858.06;4763260;29;96974;-74
2023/07/22 04:13:25;;;;;;;18.17;16.65;;;;;;;19.67;61.83;99857.75;4764032;29;98534;-74
2023/07/22 04:15:52;;;;;;;18.52;16.90;;;;;;;19.75;61.58;99853.63;4752244;29;100189;-74
2023/07/22 04:18:19;;;;;;;19.55;18.13;;;;;;;19.82;61.50;99865.50;4768204;29;97211;-74
2023/07/22 04:20:45;;;;;;;19.67;18.23;;;;;;;19.87;61.47;99868.66;4763434;29;97075;-74
2023/07/22 04:23:11;;;;;;;20.13;18.55;;;;;;;19.95;61.24;99862.69;4763794;29;97240;-73
2023/07/22 04:25:44;;;;;;;19.90;18.40;;;;;;;20.05;60.95;99864.50;4763167;29;98846;-73
2023/07/22 04:28:10;;;;;;;18.52;17.33;;;;;;;20.17;60.48;99857.31;4758811;29;97363;-73
2023/07/22 04:30:37;;;;;;;19.17;17.95;;;;;;;20.30;59.92;99865.16;4744034;29;97713;-73
2023/07/22 04:33:03;;;;;;;17.90;16.70;;;;;;;20.45;59.71;99863.03;4763560;29;98858;-74
2023/07/22 04:35:33;;;;;;;17.60;16.20;;;;;;;20.58;59.22;99866.44;4763192;29;98315;-73
2023/07/22 04:37:59;;;;;;;19.00;17.65;;;;;;;20.67;58.66;99871.00;4763128;29;96755;-74
2023/07/22 04:40:25;;;;;;;19.52;17.77;;;;;;;20.89;58.29;99871.91;4763542;29;96858;-74
2023/07/22 04:42:51;;;;;;;18.52;17.02;;;;;;;20.95;57.69;99877.53;4763383;29;98823;-74
2023/07/22 04:45:18;;;;;;;18.38;17.08;;;;;;;21.17;57.27;99873.88;4763789;29;98391;-74
2023/07/22 04:47:46;;;;;;;18.40;17.15;;;;;;;21.31;56.91;99890.56;4752013;29;96975;-74
2023/07/22 04:50:13;;;;;;;18.10;16.95;;;;;;;21.45;56.74;99882.25;4763563;29;96945;-74
2023/07/22 04:52:39;;;;;;;19.17;17.65;;;;;;;21.54;55.97;99885.94;4762690;29;98954;-74
2023/07/22 04:55:09;;;;;;;17.90;16.77;;;;;;;21.65;55.65;99897.38;4762930;29;97691;-74
2023/07/22 04:57:44;;;;;;;18.58;17.23;;;;;;;21.86;55.26;99893.81;4761534;29;96809;-74
2023/07/22 05:00:16;;;;;;;18.23;17.13;;;;;;;21.84;55.19;99898.44;4749175;29;97310;-74
2023/07/22 05:02:43;;;;;;;;;;;;;;;21.92;54.74;99886.09;4766602;29;98680;-74
2023/07/22 05:05:09;;;;;;;18.15;16.95;;;;;;;22.14;54.30;99889.56;4766504;29;98724;-74
2023/07/22 05:07:35;;;;;;;18.05;16.85;;;;;;;22.33;53.82;99894.09;4765879;29;96875;-74
2023/07/22 05:10:00;;;;;;;19.05;17.50;;;;;;;22.44;53.65;99903.84;4769512;29;97515;-74
2023/07/22 05:12:26;;;;;;;18.08;16.58;;;;;;;22.59;53.44;99900.63;4763446;29;98964;-74
2023/07/22 05:14:51;;;;;;;18.02;16.50;;;;;;;22.58;52.65;99906.13;4760616;29;98599;-74
2023/07/22 05:17:17;;;;;;;18.30;16.90;;;;;;;22.75;52.44;99901.91;4770644;29;97280;-74
2023/07/22 05:19:43;;;;;;;21.35;19.50;;;;;;;22.88;51.35;99907.81;4766124;29;96922;-74
2023/07/22 05:22:08;;;;;;;16.85;15.75;;;;;;;23.16;51.31;99924.03;4769904;29;99262;-74
2023/07/22 05:24:34;;;;;;;17.40;16.40;;;;;;;23.00;50.46;99919.25;4768217;29;98384;-74
2023/07/22 05:26:59;;;;;;;17.58;16.48;;;;;;;23.25;50.32;99917.81;4765288;29;96690;-74
2023/07/22 05:29:25;;;;;;;17.77;16.50;;;;;;;23.43;50.10;99917.94;4771933;29;97067;-74
2023/07/22 05:31:51;;;;;;;18.27;17.10;;;;;;;23.49;49.89;99917.34;4765648;29;98814;-74
2023/07/22 05:34:16;;;;;;;17.02;15.73;;;;;;;23.78;49.42;99919.13;4771015;29;99049;-74
2023/07/22 05:36:42;;;;;;;17.83;16.58;;;;;;;23.95;48.79;99918.34;4757331;29;97227;-74
2023/07/22 05:39:07;;;;;;;19.45;17.95;;;;;;;24.12;47.93;99916.72;4766012;29;96873;-74
2023/07/22 05:41:33;;;;;;;18.42;16.95;;;;;;;24.28;47.38;99918.75;4761878;29;98657;-75
2023/07/22 05:43:59;;;;;;;18.38;17.00;;;;;;;24.58;47.05;99918.44;4745348;29;98538;-75
2023/07/22 05:46:24;;;;;;;18.20;16.92;;;;;;;25.00;45.98;99922.34;4765419;29;96738;-74
2023/07/22 05:48:50;;;;;;;18.52;17.33;;;;;;;25.53;45.43;99927.63;4763469;29;97429;-75
2023/07/22 05:51:16;;;;;;;17.40;16.40;;;;;;;26.10;44.08;99923.63;4777984;29;99560;-74
2023/07/22 05:53:41;;;;;;;17.90;16.58;;;;;;;26.75;43.03;99913.03;4766484;29;98327;-75
2023/07/22 05:56:07;;;;;;;17.95;16.85;;;;;;;27.57;41.66;99915.72;4752595;29;97529;-75
2023/07/22 05:58:32;;;;;;;17.67;16.58;;;;;;;28.59;39.52;99922.06;4758497;29;96886;-75
2023/07/22 06:00:58;;;;;;;17.38;16.10;;;;;;;30.01;37.11;99919.63;4757715;29;98673;-75
2023/07/22 06:03:24;;;;;;;16.77;15.75;;;;;;;31.02;34.63;99920.63;4766307;29;98510;-75
2023/07/22 06:05:49;;;;;;;16.67;15.55;;;;;;;32.37;33.00;99919.41;4754805;29;97166;-75
2023/07/22 06:08:15;;;;;;;18.15;16.77;;;;;;;33.07;31.73;99927.34;4750914;29;96908;-75
2023/07/22 06:10:40;;;;;;;16.35;15.43;;;;;;;33.83;30.95;99915.13;4766449;29;99268;-75
2023/07/22 06:13:06;;;;;;;17.27;16.27;;;;;;;34.37;29.46;99928.38;4761601;29;98442;-75
2023/07/22 06:15:32;;;;;;;16.67;15.57;;;;;;;34.86;28.87;99924.13;4763229;29;96619;-75
2023/07/22 06:17:59;;;;;;;16.73;15.73;;;;;;;35.45;27.92;99921.97;4765021;29;96833;-75
2023/07/22 06:20:25;;;;;;;16.70;15.57;;;;;;;34.46;29.09;99937.13;4747443;29;98994;-75
2023/07/22 06:22:50;;;;;;;16.98;15.88;;;;;;;35.74;27.52;99927.81;4738816;29;98296;-75
2023/07/22 06:25:16;;;;;;;16.40;15.40;;;;;;;36.28;26.78;99931.63;4767729;29;97154;-75
2023/07/22 06:27:41;;;;;;;16.55;15.45;;;;;;;36.66;26.16;99939.53;4759156;29;96909;-75
2023/07/22 06:30:07;;;;;;;18.08;16.90;;;;;;;37.10;25.69;99931.94;4750923;29;98941;-75
2023/07/22 06:32:34;;;;;;;17.75;16.38;;;;;;;37.48;25.58;99935.31;4759209;29;98882;-75
2023/07/22 06:34:59;;;;;;;17.30;16.20;;;;;;;37.64;25.36;99939.22;4763689;29;96765;-75
2023/07/22 06:37:25;;;;;;;17.13;15.98;;;;;;;38.01;24.65;99937.91;4752993;29;98159;-75
2023/07/22 06:39:51;;;;;;;17.88;16.45;;;;;;;37.09;24.97;99935.75;4766540;29;98700;-75
2023/07/22 06:42:17;;;;;;;18.60;17.35;;;;;;;36.30;26.11;99945.84;4752646;29;98412;-75
2023/07/22 06:44:43;;;;;;;17.77;16.67;;;;;;;36.25;26.09;99937.53;4770393;29;97600;-75
2023/07/22 06:47:08;;;;;;;17.50;16.10;;;;;;;35.59;26.88;99948.09;4765161;29;96848;-75
2023/07/22 06:49:34;;;;;;;18.10;16.73;;;;;;;34.58;27.87;99954.47;4764524;29;99169;-75
2023/07/22 06:52:01;;;;;;;17.85;16.80;;;;;;;33.73;28.98;99949.06;4767000;29;98354;-75
2023/07/22 06:54:27;;;;;;;17.25;16.15;;;;;;;32.63;30.42;99950.44;4764282;29;96804;-75
2023/07/22 06:56:52;;;;;;;16.60;15.60;;;;;;;31.39;32.21;99963.91;4763902;29;96982;-75
2023/07/22 06:59:18;;;;;;;17.75;16.13;;;;;;;31.54;31.72;99967.38;4762066;29;98717;-72
2023/07/22 07:01:43;;;;;;;17.40;16.30;;;;;;;30.83;33.04;99970.03;4765192;29;98610;-76
2023/07/22 07:04:09;;;;;;;17.27;16.17;;;;;;;30.90;32.67;99970.94;4765002;29;96845;-77
2023/07/22 07:06:34;;;;;;;17.55;15.90;;;;;;;30.32;33.45;99973.59;4767194;29;97615;-79
2023/07/22 07:09:00;;;;;;;16.77;15.57;;;;;;;29.50;34.33;99968.19;4763388;29;99293;-77
2023/07/22 07:11:26;;;;;;;17.10;16.00;;;;;;;29.00;35.03;99983.94;4763512;29;98463;-77
2023/07/22 07:13:52;;;;;;;17.65;16.52;;;;;;;28.83;35.43;99980.50;4750558;29;96800;-77
2023/07/22 07:16:26;;;;;;;16.90;15.73;;;;;;;29.66;34.29;99975.31;4763915;29;97332;-76
2023/07/22 07:18:52;;;;;;;17.77;16.20;;;;;;;28.90;35.41;99988.72;4761361;29;98984;-77
2023/07/22 07:21:18;;;;;;;17.23;15.90;;;;;;;28.54;36.28;99993.84;4757247;29;98745;-77
2023/07/22 07:23:44;;;;;;;16.27;15.27;;;;;;;28.02;37.07;99986.25;4759989;29;98509;-77
2023/07/22 07:26:10;;;;;;;17.45;15.82;;;;;;;27.52;37.70;99989.03;4758940;29;98750;-77
2023/07/22 07:28:35;;;;;;;16.88;15.77;;;;;;;27.99;36.92;99984.75;4760177;29;99153;-77
2023/07/22 07:31:01;;;;;;;16.70;15.70;;;;;;;30.11;33.84;99985.16;4750872;29;98906;-77
2023/07/22 07:33:26;;;;;;;16.15;15.15;;;;;;;30.82;32.53;99981.91;4757330;29;97589;-78
2023/07/22 07:35:52;;;;;;;17.10;15.77;;;;;;;32.05;31.18;99983.38;4764537;29;97188;-77
2023/07/22 07:38:17;;;;;;;17.63;16.05;;;;;;;33.11;30.50;99983.81;4762430;29;98759;-77
2023/07/22 07:40:43;;;;;;;17.35;15.93;;;;;;;33.55;29.27;99987.00;4761081;29;98229;-78
2023/07/22 07:43:08;;;;;;;16.35;14.95;;;;;;;33.29;28.94;99982.38;4764298;29;96791;-78
2023/07/22 07:45:38;;;;;;;16.10;15.07;;;;;;;33.47;28.84;99987.16;4766481;29;97976;-78
2023/07/22 07:48:05;;;;;;;15.43;14.40;;;;;;;34.04;28.12;99988.41;4767181;29;98732;-78
2023/07/22 07:50:30;;;;;;;15.57;14.68;;;;;;;34.26;28.06;99986.22;4763347;29;98407;-77
2023/07/22 07:52:56;;;;;;;16.10;15.15;;;;;;;35.15;27.29;99992.75;4762908;29;96999;-76
2023/07/22 07:55:21;;;;;;;15.88;14.98;;;;;;;35.94;26.31;99990.38;4766953;29;96843;-77
2023/07/22 07:57:47;;;;;;;16.25;15.23;;;;;;;36.47;25.39;99989.78;4762679;29;98807;-77
2023/07/22 08:00:13;;;;;;;16.38;15.25;;;;;;;36.86;25.15;99996.66;4757473;29;98521;-77
2023/07/22 08:02:38;;;;;;;16.77;15.68;;;;;;;37.44;24.28;99984.22;4760828;29;97113;-77
2023/07/22 08:05:05;;;;;;;16.77;15.57;;;;;;;36.90;24.77;100005.22;4763052;29;96894;-77
2023/07/22 08:07:31;;;;;;;15.93;14.75;;;;;;;37.00;24.15;100001.91;4755068;29;99157;-77
2023/07/22 08:09:57;;;;;;;16.90;15.50;;;;;;;37.47;23.97;100005.66;4760470;29;98352;-76
2023/07/22 08:12:23;;;;;;;17.52;16.50;;;;;;;37.95;23.74;100001.88;4765962;29;96860;-77
2023/07/22 08:14:49;;;;;;;16.27;15.07;;;;;;;38.01;23.47;100009.13;4761551;29;97456;-77
2023/07/22 08:17:14;;;;;;;16.42;15.32;;;;;;;38.03;23.53;100011.63;4761141;29;98805;-78
2023/07/22 08:19:40;;;;;;;16.55;15.35;;;;;;;37.24;24.32;100013.81;4760770;29;98370;-76
2023/07/22 08:22:06;;;;;;;17.63;16.30;;;;;;;37.45;24.10;100013.22;4761586;29;97294;-76
2023/07/22 08:24:32;;;;;;;16.30;15.30;;;;;;;38.15;23.68;100020.66;4761930;29;96890;-76
2023/07/22 08:26:58;;;;;;;16.10;15.10;;;;;;;38.01;23.05;100017.34;4770100;29;99124;-78
2023/07/22 08:29:25;;;;;;;16.77;15.48;;;;;;;37.26;24.07;100030.78;4764066;29;96801;-77
2023/07/22 08:31:50;;;;;;;16.45;15.35;;;;;;;37.22;23.57;100030.44;4760840;29;97232;-77
2023/07/22 08:34:16;;;;;;;16.00;15.20;;;;;;;37.56;23.60;100028.88;4766003;29;96907;-78
2023/07/22 08:36:42;;;;;;;16.38;15.13;;;;;;;37.62;22.93;100026.25;4765597;29;98608;-78
2023/07/22 08:39:07;;;;;;;17.52;16.42;;;;;;;37.98;22.85;100028.78;4767029;29;98351;-78
2023/07/22 08:41:33;;;;;;;17.55;16.45;;;;;;;38.49;22.13;100023.59;4763460;29;97187;-78
2023/07/22 08:44:00;;;;;;;15.05;14.07;;;;;;;39.02;21.69;100024.38;4751646;29;97209;-78
2023/07/22 08:46:29;;;;;;;15.35;14.45;;;;;;;39.32;21.56;100019.44;4759239;29;99333;-78
2023/07/22 08:48:57;;;;;;;16.25;15.05;;;;;;;37.93;22.85;100022.31;4766232;29;98415;-77
2023/07/22 08:51:23;;;;;;;17.42;16.13;;;;;;;36.69;23.74;100020.25;4749988;29;97436;-77
2023/07/22 08:53:49;;;;;;;15.77;14.85;;;;;;;37.23;23.08;100023.88;4751027;29;97237;-77
2023/07/22 08:56:15;;;;;;;16.55;15.40;;;;;;;37.05;23.31;100024.78;4740867;29;98696;-77
2023/07/22 08:58:41;;;;;;;16.90;15.80;;;;;;;36.83;23.08;100023.59;4760104;29;98450;-77
2023/07/22 09:01:07;;;;;;;16.15;15.10;;;;;;;36.36;23.70;100028.81;4765677;29;98065;-78
2023/07/22 09:03:33;;;;;;;16.95;15.85;;;;;;;36.17;23.51;100026.09;4746213;29;97622;-81
2023/07/22 09:05:59;;;;;;;16.65;15.75;;;;;;;35.70;24.44;100025.69;4763716;29;98834;-80
2023/07/22 09:08:25;;;;;;;16.48;15.48;;;;;;;35.32;24.72;100036.69;4747894;29;98390;-80
2023/07/22 09:10:50;;;;;;;16.92;15.93;;;;;;;34.50;25.10;100028.25;4760174;29;97164;-77
2023/07/22 09:13:19;;;;;;;17.35;16.15;;;;;;;34.15;26.08;100025.03;4747972;29;97743;-80
2023/07/22 09:15:45;;;;;;;16.50;15.50;;;;;;;33.99;26.36;100018.97;4766347;29;99065;-78
2023/07/22 09:18:10;;;;;;;16.73;15.73;;;;;;;33.80;26.16;100022.53;4764899;29;98719;-78
2023/07/22 09:20:36;;;;;;;16.67;15.63;;;;;;;32.89;26.73;100032.03;4763012;29;97910;-78
2023/07/22 09:23:02;;;;;;;17.08;15.80;;;;;;;32.84;27.10;100029.09;4758239;29;99858;-78
2023/07/22 09:25:28;;;;;;;16.45;15.45;;;;;;;32.81;27.43;100028.66;4764613;29;98671;-78
2023/07/22 09:27:55;;;;;;;16.80;15.70;;;;;;;32.73;27.11;100026.16;4760912;29;98507;-78
2023/07/22 09:30:26;;;;;;;16.23;15.27;;;;;;;32.73;27.98;100023.44;4763685;29;97332;-79
2023/07/22 09:32:54;;;;;;;16.67;15.43;;;;;;;32.57;27.78;100030.03;4758286;29;96951;-76
2023/07/22 09:35:20;;;;;;;16.63;15.52;;;;;;;32.38;28.06;100027.00;4760411;29;98827;-76
2023/07/22 09:37:46;;;;;;;16.95;15.85;;;;;;;32.34;28.28;100027.59;4764999;29;98375;-76
2023/07/22 09:40:24;;;;;;;16.77;15.68;;;;;;;32.12;28.81;100033.13;4761199;29;97547;-76
2023/07/22 09:42:51;;;;;;;16.80;15.77;;;;;;;31.61;28.17;100037.94;4764590;29;96947;-78
2023/07/22 09:45:18;;;;;;;17.35;16.05;;;;;;;31.39;28.88;100032.56;4757016;29;99014;-76
2023/07/22 09:47:47;;;;;;;16.60;15.60;;;;;;;31.37;28.85;100041.91;4764931;29;98378;-77
2023/07/22 09:50:21;;;;;;;17.10;15.68;;;;;;;31.46;29.11;100036.16;4767493;29;97483;-77
2023/07/22 09:52:49;;;;;;;16.88;15.88;;;;;;;31.38;29.36;100035.44;4749238;29;96967;-77
2023/07/22 09:55:17;;;;;;;17.50;16.50;;;;;;;31.03;29.21;100035.28;4766012;29;98860;-78
2023/07/22 09:57:45;;;;;;;17.00;15.55;;;;;;;30.93;28.77;100035.59;4752901;29;98889;-77
2023/07/22 10:00:16;;;;;;;16.95;15.95;;;;;;;31.02;28.97;100044.44;4768328;29;97148;-76
2023/07/22 10:02:43;;;;;;;18.02;16.83;;;;;;;31.09;29.27;100039.91;4763726;29;96898;-76
2023/07/22 10:05:14;;;;;;;17.33;16.10;;;;;;;31.05;29.34;100038.63;4763573;29;98867;-76
2023/07/22 10:07:44;;;;;;;17.90;16.80;;;;;;;30.49;28.92;100041.91;4761251;29;99145;-77
2023/07/22 10:10:11;;;;;;;17.52;16.52;;;;;;;30.14;29.75;100047.03;4757584;29;97144;-77
2023/07/22 10:12:39;;;;;;;17.08;15.73;;;;;;;30.11;29.53;100041.97;4746824;29;97364;-76
2023/07/22 10:15:06;;;;;;;17.45;16.45;;;;;;;30.06;29.47;100043.56;4748382;29;98900;-76
2023/07/22 10:17:31;;;;;;;17.67;16.58;;;;;;;30.18;29.79;100040.19;4746371;29;98586;-76
2023/07/22 10:19:57;;;;;;;17.63;16.40;;;;;;;29.97;29.83;100040.94;4747958;29;97667;-71
2023/07/22 10:22:23;;;;;;;16.38;15.38;;;;;;;29.82;29.71;100036.50;4750305;29;96983;-70
2023/07/22 10:24:49;;;;;;;17.88;16.58;;;;;;;29.01;29.75;100039.66;4762315;29;99031;-78
2023/07/22 10:27:15;;;;;;;17.65;16.50;;;;;;;29.24;29.72;100044.25;4754329;29;98461;-78
2023/07/22 10:29:41;;;;;;;17.42;16.40;;;;;;;29.46;29.84;100040.69;4731504;29;97142;-79
2023/07/22 10:32:07;;;;;;;17.63;16.60;;;;;;;29.31;29.89;100040.63;4761527;29;97524;-77
2023/07/22 10:34:32;;;;;;;17.80;16.80;;;;;;;29.20;29.86;100045.63;4742800;29;98966;-77
2023/07/22 10:36:58;;;;;;;18.02;16.92;;;;;;;29.01;30.07;100047.75;4762610;29;98398;-76
2023/07/22 10:39:28;;;;;;;17.88;16.77;;;;;;;28.55;30.42;100060.31;4762773;29;97052;-76
2023/07/22 10:42:04;;;;;;;17.98;16.73;;;;;;;28.35;30.74;100052.56;4762878;29;96989;-75
2023/07/22 10:44:37;;;;;;;53.22;23.13;;;;;;;28.58;30.70;100047.28;4759635;29;98755;-66
2023/07/22 10:47:04;;;;;;;26.48;18.60;;;;;;;28.61;30.64;100048.81;4761558;29;98418;-67
2023/07/22 10:49:48;;;;;;;18.13;16.90;;;;;;;28.55;30.13;100046.81;4765573;29;97289;-68
2023/07/22 10:52:14;;;;;;;17.55;16.10;;;;;;;28.34;30.51;100050.91;4759800;29;97433;-67
2023/07/22 10:54:39;;;;;;;17.02;16.02;;;;;;;28.27;29.98;100051.75;4768157;29;98924;-67
2023/07/22 10:57:14;;;;;;;17.75;16.55;;;;;;;28.16;29.32;100047.59;4767517;29;98394;-67
2023/07/22 10:59:47;;;;;;;17.00;15.70;;;;;;;28.33;29.35;100043.84;4765108;29;96867;-67
2023/07/22 11:02:26;;;;;;;16.85;15.65;;;;;;;28.36;29.51;100038.09;4745577;29;96934;-66
2023/07/22 11:04:51;;;;;;;17.00;16.00;;;;;;;28.34;30.01;100034.72;4760181;29;98719;-66
2023/07/22 11:07:33;;;;;;;17.67;16.25;;;;;;;28.58;29.86;100046.47;4762795;29;98359;-68
2023/07/22 11:10:19;;;;;;;16.38;15.27;;;;;;;28.65;29.62;100040.19;4768769;29;96804;-68
2023/07/22 11:12:45;;;;;;;16.70;15.40;;;;;;;28.52;29.99;100034.50;4766638;29;97218;-67